createdAt,value
2023-12-07T00:02:00.318Z,4.60
2023-12-07T00:04:27.075Z,4.50
2023-12-07T00:06:54.330Z,4.50
2023-12-07T00:09:22.204Z,4.50
2023-12-07T00:11:49.069Z,4.50
2023-12-07T00:14:18.390Z,4.40
2023-12-07T00:16:45.067Z,4.40
2023-12-07T00:19:14.508Z,4.40
2023-12-07T00:21:41.300Z,4.30
2023-12-07T00:24:08.139Z,4.30
2023-12-07T00:26:34.772Z,4.30
2023-12-07T00:29:03.962Z,4.30
2023-12-07T00:31:33.156Z,4.20
2023-12-07T00:34:03.387Z,4.20
2023-12-07T00:36:30.139Z,4.20
2023-12-07T00:38:59.418Z,4.10
2023-12-07T00:41:29.323Z,4.10
2023-12-07T00:43:56.829Z,4.10
2023-12-07T00:46:24.234Z,4.00
2023-12-07T00:48:58.428Z,4.00
2023-12-07T00:51:28.716Z,4.00
2023-12-07T00:53:55.381Z,4.00
2023-12-07T00:56:24.169Z,4.00
2023-12-07T00:58:53.156Z,4.00
2023-12-07T01:01:25.642Z,4.00
2023-12-07T01:03:52.293Z,3.90
2023-12-07T01:06:22.618Z,3.90
2023-12-07T01:08:49.344Z,3.90
2023-12-07T01:11:18.436Z,3.90
2023-12-07T01:13:47.195Z,3.90
2023-12-07T01:16:19.538Z,3.80
2023-12-07T01:18:46.249Z,3.80
2023-12-07T01:21:18.320Z,3.80
2023-12-07T01:23:49.546Z,3.70
2023-12-07T01:26:17.396Z,3.80
2023-12-07T01:28:45.047Z,3.70
2023-12-07T01:31:11.716Z,3.70
2023-12-07T01:33:38.400Z,3.70
2023-12-07T01:36:06.688Z,3.60
2023-12-07T01:38:33.390Z,3.60
2023-12-07T01:41:00.230Z,3.60
2023-12-07T01:43:29.363Z,3.50
2023-12-07T01:45:58.815Z,3.50
2023-12-07T01:48:27.498Z,3.50
2023-12-07T01:51:03.078Z,3.50
2023-12-07T01:53:29.943Z,3.50
2023-12-07T01:55:57.415Z,3.50
2023-12-07T01:58:26.805Z,3.50
2023-12-07T02:00:56.414Z,3.40
2023-12-07T02:03:24.293Z,3.40
2023-12-07T02:05:57.197Z,3.40
2023-12-07T02:08:23.880Z,3.40
2023-12-07T02:10:50.579Z,3.40
2023-12-07T02:13:17.285Z,3.40
2023-12-07T02:15:48.598Z,3.40
2023-12-07T02:18:36.780Z,3.40
2023-12-07T02:21:18.112Z,3.40
2023-12-07T02:23:52.441Z,3.40
2023-12-07T02:26:53.616Z,3.40
2023-12-07T02:29:22.928Z,3.40
2023-12-07T02:31:51.960Z,3.40
2023-12-07T02:34:21.696Z,3.40
2023-12-07T02:36:49.997Z,3.40
2023-12-07T02:39:19.706Z,3.40
2023-12-07T02:41:48.095Z,3.50
2023-12-07T02:44:15.029Z,3.60
2023-12-07T02:46:41.863Z,3.70
2023-12-07T02:49:08.590Z,3.80
2023-12-07T02:51:40.008Z,3.90
2023-12-07T02:54:06.801Z,4.00
2023-12-07T02:56:33.395Z,4.20
2023-12-07T02:59:03.004Z,4.30
2023-12-07T03:01:29.740Z,4.40
2023-12-07T03:03:58.943Z,4.40
2023-12-07T03:06:26.585Z,4.50
2023-12-07T03:08:54.458Z,4.60
2023-12-07T03:11:21.094Z,4.70
2023-12-07T03:13:47.830Z,4.70
2023-12-07T03:16:14.512Z,4.80
2023-12-07T03:18:41.202Z,4.80
2023-12-07T03:21:10.216Z,4.90
2023-12-07T03:23:37.068Z,4.90
2023-12-07T03:26:03.904Z,4.90
2023-12-07T03:28:35.155Z,5.00
2023-12-07T03:31:01.861Z,5.00
2023-12-07T03:33:28.594Z,5.00
2023-12-07T03:35:58.276Z,5.00
2023-12-07T03:38:24.940Z,5.10
2023-12-07T03:40:51.664Z,5.10
2023-12-07T03:43:21.630Z,5.10
2023-12-07T03:45:53.118Z,5.10
2023-12-07T03:48:19.896Z,5.10
2023-12-07T03:50:50.059Z,5.10
2023-12-07T03:53:17.947Z,5.10
2023-12-07T03:55:45.912Z,5.10
2023-12-07T03:58:16.527Z,5.20
2023-12-07T04:00:44.372Z,5.20
2023-12-07T04:03:11.162Z,5.20
2023-12-07T04:05:38.580Z,5.20
2023-12-07T04:08:15.778Z,5.20
2023-12-07T04:10:42.504Z,5.20
2023-12-07T04:13:09.634Z,5.30
2023-12-07T04:15:36.310Z,5.30
2023-12-07T04:18:05.227Z,5.30
2023-12-07T04:20:34.961Z,5.30
2023-12-07T04:23:01.576Z,5.30
2023-12-07T04:25:31.924Z,5.30
2023-12-07T04:27:58.616Z,5.40
2023-12-07T04:30:27.881Z,5.30
2023-12-07T04:32:57.050Z,5.30
2023-12-07T04:35:23.780Z,5.40
2023-12-07T04:37:52.851Z,5.40
2023-12-07T04:40:19.584Z,5.40
2023-12-07T04:42:46.318Z,5.40
2023-12-07T04:45:13.185Z,5.40
2023-12-07T04:47:42.461Z,5.40
2023-12-07T04:50:10.535Z,5.40
2023-12-07T04:52:37.608Z,5.40
2023-12-07T04:55:04.991Z,5.40
2023-12-07T04:57:35.601Z,5.50
2023-12-07T05:00:11.695Z,5.50
2023-12-07T05:02:44.128Z,5.50
2023-12-07T05:05:12.245Z,5.50
2023-12-07T05:07:43.978Z,5.50
2023-12-07T05:10:10.974Z,5.50
2023-12-07T05:12:37.928Z,5.50
2023-12-07T05:15:06.755Z,5.50
2023-12-07T05:17:33.701Z,5.50
2023-12-07T05:20:00.410Z,5.60
2023-12-07T05:22:27.520Z,5.60
2023-12-07T05:24:56.933Z,5.60
2023-12-07T05:27:23.619Z,5.60
2023-12-07T05:29:50.318Z,5.60
2023-12-07T05:32:16.983Z,5.60
2023-12-07T05:34:43.730Z,5.60
2023-12-07T05:37:10.462Z,5.60
2023-12-07T05:39:37.178Z,5.60
2023-12-07T05:42:07.907Z,5.70
2023-12-07T05:44:34.536Z,5.70
2023-12-07T05:47:01.266Z,5.70
2023-12-07T05:49:28.675Z,5.70
2023-12-07T05:51:55.399Z,5.70
2023-12-07T05:54:23.291Z,5.70
2023-12-07T05:56:50.524Z,5.70
2023-12-07T05:59:17.173Z,5.80
2023-12-07T06:01:44.269Z,5.80
2023-12-07T06:04:11.576Z,5.80
2023-12-07T06:06:38.242Z,5.80
2023-12-07T06:09:06.741Z,5.80
2023-12-07T06:11:34.620Z,5.80
2023-12-07T06:14:03.297Z,5.80
2023-12-07T06:16:30.044Z,5.80
2023-12-07T06:18:56.836Z,5.80
2023-12-07T06:21:23.597Z,5.80
2023-12-07T06:23:50.303Z,5.80
2023-12-07T06:26:17.585Z,5.80
2023-12-07T06:28:45.180Z,5.80
2023-12-07T06:31:13.275Z,5.80
2023-12-07T06:33:41.023Z,5.80
2023-12-07T06:36:08.204Z,5.90
2023-12-07T06:38:34.865Z,5.90
2023-12-07T06:41:01.500Z,5.90
2023-12-07T06:43:28.163Z,5.90
2023-12-07T06:45:54.836Z,5.90
2023-12-07T06:48:21.595Z,5.90
2023-12-07T06:50:48.361Z,5.90
2023-12-07T06:53:15.594Z,5.90
2023-12-07T06:55:45.638Z,5.90
2023-12-07T06:58:13.048Z,5.90
2023-12-07T07:00:39.915Z,5.90
2023-12-07T07:03:07.309Z,5.90
2023-12-07T07:05:34.234Z,5.90
2023-12-07T07:08:01.125Z,5.90
2023-12-07T07:10:27.917Z,5.90
2023-12-07T07:12:55.133Z,5.90
2023-12-07T07:15:22.041Z,5.90
2023-12-07T07:17:48.791Z,5.90
2023-12-07T07:20:15.525Z,5.90
2023-12-07T07:22:42.322Z,5.90
2023-12-07T07:25:10.037Z,5.90
2023-12-07T07:27:36.833Z,5.90
2023-12-07T07:30:05.264Z,5.90
2023-12-07T07:32:32.224Z,5.90
2023-12-07T07:34:59.025Z,5.90
2023-12-07T07:37:26.230Z,5.90
2023-12-07T07:39:53.041Z,5.90
2023-12-07T07:42:20.154Z,5.90
2023-12-07T07:44:46.810Z,6.00
2023-12-07T07:47:13.468Z,6.00
2023-12-07T07:49:40.202Z,6.00
2023-12-07T07:52:07.007Z,6.00
2023-12-07T07:54:33.651Z,6.00
2023-12-07T07:57:00.426Z,6.00
2023-12-07T07:59:27.290Z,6.10
2023-12-07T08:01:53.937Z,6.10
2023-12-07T08:04:20.613Z,6.10
2023-12-07T08:06:47.275Z,6.10
2023-12-07T08:09:13.934Z,6.10
2023-12-07T08:11:40.667Z,6.10
2023-12-07T08:14:07.660Z,6.20
2023-12-07T08:16:34.381Z,6.20
2023-12-07T08:19:01.262Z,6.20
2023-12-07T08:21:31.396Z,6.20
2023-12-07T08:23:58.364Z,6.20
2023-12-07T08:26:25.013Z,6.20
2023-12-07T08:28:54.768Z,6.20
2023-12-07T08:31:21.510Z,6.20
2023-12-07T08:33:48.423Z,6.20
2023-12-07T08:36:16.929Z,6.20
2023-12-07T08:38:43.844Z,6.20
2023-12-07T08:41:10.474Z,6.20
2023-12-07T08:43:37.169Z,6.20
2023-12-07T08:46:04.746Z,6.20
2023-12-07T08:48:31.951Z,6.20
2023-12-07T08:50:58.877Z,6.20
2023-12-07T08:53:25.842Z,6.10
2023-12-07T08:55:52.923Z,6.10
2023-12-07T08:58:19.577Z,6.10
2023-12-07T09:00:46.233Z,6.10
2023-12-07T09:03:12.989Z,6.10
2023-12-07T09:05:40.096Z,6.00
2023-12-07T09:08:07.748Z,6.00
2023-12-07T09:10:34.370Z,6.00
2023-12-07T09:13:00.993Z,6.00
2023-12-07T09:15:27.702Z,6.00
2023-12-07T09:17:55.426Z,6.00
2023-12-07T09:20:22.356Z,6.00
2023-12-07T09:22:49.597Z,6.00
2023-12-07T09:25:18.391Z,6.00
2023-12-07T09:27:45.226Z,6.00
2023-12-07T09:30:12.887Z,6.00
2023-12-07T09:32:44.568Z,6.10
2023-12-07T09:35:16.349Z,6.10
2023-12-07T09:37:43.453Z,6.10
2023-12-07T09:40:17.225Z,6.10
2023-12-07T09:42:44.272Z,6.10
2023-12-07T09:45:11.429Z,6.20
2023-12-07T09:47:39.917Z,6.20
2023-12-07T09:50:10.475Z,6.20
2023-12-07T09:52:37.574Z,6.30
2023-12-07T09:55:05.203Z,6.30
2023-12-07T09:57:32.733Z,6.40
2023-12-07T10:00:01.727Z,6.40
2023-12-07T10:02:28.737Z,6.40
2023-12-07T10:05:09.349Z,6.50
2023-12-07T10:07:38.776Z,6.50
2023-12-07T10:10:06.356Z,6.60
2023-12-07T10:12:35.255Z,6.60
2023-12-07T10:15:12.171Z,6.70
2023-12-07T10:17:51.627Z,6.70
2023-12-07T10:20:20.032Z,6.80
2023-12-07T10:22:47.472Z,6.80
2023-12-07T10:25:15.071Z,6.80
2023-12-07T10:27:43.689Z,6.90
2023-12-07T10:30:12.208Z,6.90
2023-12-07T10:32:40.686Z,7.00
2023-12-07T10:35:09.483Z,7.10
2023-12-07T10:37:36.233Z,7.10
2023-12-07T10:40:04.418Z,7.20
2023-12-07T10:42:34.460Z,7.20
2023-12-07T10:45:05.477Z,7.20
2023-12-07T10:47:38.198Z,7.20
2023-12-07T10:50:14.925Z,7.20
2023-12-07T10:52:58.217Z,7.20
2023-12-07T10:55:35.623Z,7.20
2023-12-07T10:58:03.563Z,7.20
2023-12-07T11:00:40.181Z,7.10
2023-12-07T11:03:12.220Z,7.10
2023-12-07T11:05:39.859Z,7.00
2023-12-07T11:08:10.921Z,7.00
2023-12-07T11:10:51.290Z,6.90
2023-12-07T11:13:34.816Z,6.90
2023-12-07T11:16:01.756Z,6.80
2023-12-07T11:18:29.834Z,6.80
2023-12-07T11:20:57.442Z,6.70
2023-12-07T11:23:24.421Z,6.70
2023-12-07T11:25:53.737Z,6.70
2023-12-07T11:28:36.135Z,6.70
2023-12-07T11:31:03.638Z,6.60
2023-12-07T11:33:31.605Z,6.60
2023-12-07T11:36:04.428Z,6.60
2023-12-07T11:38:31.241Z,6.60
2023-12-07T11:40:58.168Z,6.60
2023-12-07T11:43:34.147Z,6.60
2023-12-07T11:46:01.140Z,6.60
2023-12-07T11:48:28.097Z,6.60
2023-12-07T11:50:56.827Z,6.60
2023-12-07T11:53:26.314Z,6.60
2023-12-07T11:55:53.813Z,6.60
2023-12-07T11:58:21.121Z,6.70
2023-12-07T12:00:48.557Z,6.70
2023-12-07T12:03:15.882Z,6.70
2023-12-07T12:05:44.248Z,6.70
2023-12-07T12:08:11.409Z,6.80
2023-12-07T12:10:39.326Z,6.80
2023-12-07T12:13:06.175Z,6.80
2023-12-07T12:15:33.366Z,6.90
2023-12-07T12:18:01.037Z,6.90
2023-12-07T12:20:28.520Z,6.90
2023-12-07T12:22:55.567Z,7.00
2023-12-07T12:25:29.501Z,7.00
2023-12-07T12:28:03.935Z,7.00
2023-12-07T12:30:32.164Z,7.10
2023-12-07T12:33:01.008Z,7.10
2023-12-07T12:35:28.257Z,7.10
2023-12-07T12:37:56.300Z,7.20
2023-12-07T12:40:24.682Z,7.20
2023-12-07T12:42:55.832Z,7.20
2023-12-07T12:45:25.957Z,7.20
2023-12-07T12:47:53.302Z,7.20
2023-12-07T12:50:39.822Z,7.30
2023-12-07T12:53:08.145Z,7.30
2023-12-07T12:55:37.707Z,7.30
2023-12-07T12:58:08.041Z,7.30
2023-12-07T13:00:35.690Z,7.30
2023-12-07T13:03:05.364Z,7.30
2023-12-07T13:05:35.996Z,7.30
2023-12-07T13:08:12.547Z,7.30
2023-12-07T13:10:42.327Z,7.30
2023-12-07T13:13:09.254Z,7.40
2023-12-07T13:15:35.987Z,7.40
2023-12-07T13:18:05.739Z,7.40
2023-12-07T13:20:46.218Z,7.40
2023-12-07T13:23:21.863Z,7.50
2023-12-07T13:25:48.627Z,7.50
2023-12-07T13:28:15.435Z,7.50
2023-12-07T13:30:42.091Z,7.50
2023-12-07T13:33:21.014Z,7.50
2023-12-07T13:35:53.266Z,7.50
2023-12-07T13:38:21.339Z,7.50
2023-12-07T13:40:48.197Z,7.50
2023-12-07T13:43:15.073Z,7.50
2023-12-07T13:45:44.989Z,7.50
2023-12-07T13:48:13.824Z,7.50
2023-12-07T13:50:41.376Z,7.50
2023-12-07T13:53:11.288Z,7.50
2023-12-07T13:55:40.857Z,7.40
2023-12-07T13:58:07.736Z,7.50
2023-12-07T14:00:35.264Z,7.50
2023-12-07T14:03:02.049Z,7.50
2023-12-07T14:05:28.885Z,7.50
2023-12-07T14:07:55.740Z,7.50
2023-12-07T14:10:23.098Z,7.50
2023-12-07T14:12:50.315Z,7.50
2023-12-07T14:15:23.393Z,7.50
2023-12-07T14:17:53.877Z,7.50
2023-12-07T14:20:35.647Z,7.50
2023-12-07T14:23:12.012Z,7.50
2023-12-07T14:25:41.237Z,7.50
2023-12-07T14:28:08.226Z,7.40
2023-12-07T14:30:36.105Z,7.50
2023-12-07T14:33:02.861Z,7.40
2023-12-07T14:35:29.803Z,7.40
2023-12-07T14:37:56.539Z,7.40
2023-12-07T14:40:23.593Z,7.40
2023-12-07T14:42:50.328Z,7.40
2023-12-07T14:45:17.362Z,7.30
2023-12-07T14:47:44.357Z,7.30
2023-12-07T14:50:11.334Z,7.30
2023-12-07T14:52:38.525Z,7.20
2023-12-07T14:55:06.507Z,7.20
2023-12-07T14:57:33.232Z,7.20
2023-12-07T15:00:00.131Z,7.10
2023-12-07T15:02:27.270Z,7.10
2023-12-07T15:04:54.210Z,7.10
2023-12-07T15:07:21.172Z,7.00
2023-12-07T15:09:51.197Z,6.90
2023-12-07T15:12:19.669Z,6.90
2023-12-07T15:14:46.580Z,6.90
2023-12-07T15:17:13.419Z,6.80
2023-12-07T15:19:41.263Z,6.70
2023-12-07T15:22:09.696Z,6.70
2023-12-07T15:24:37.365Z,6.60
2023-12-07T15:27:05.720Z,6.60
2023-12-07T15:29:35.129Z,6.50
2023-12-07T15:32:01.942Z,6.50
2023-12-07T15:34:37.006Z,6.40
2023-12-07T15:37:06.292Z,6.40
2023-12-07T15:39:33.269Z,6.30
2023-12-07T15:42:00.529Z,6.30
2023-12-07T15:44:30.061Z,6.20
2023-12-07T15:46:58.317Z,6.20
2023-12-07T15:49:25.671Z,6.10
2023-12-07T15:51:53.823Z,6.10
2023-12-07T15:54:31.125Z,6.00
2023-12-07T15:57:04.943Z,6.00
2023-12-07T15:59:31.720Z,5.90
2023-12-07T16:01:58.423Z,5.90
2023-12-07T16:04:31.524Z,5.90
2023-12-07T16:07:03.330Z,5.80
2023-12-07T16:09:30.263Z,5.80
2023-12-07T16:11:57.211Z,5.80
2023-12-07T16:14:29.622Z,5.80
2023-12-07T16:17:00.235Z,5.70
2023-12-07T16:19:28.527Z,5.70
2023-12-07T16:21:55.565Z,5.70
2023-12-07T16:24:22.529Z,5.60
2023-12-07T16:26:49.888Z,5.60
2023-12-07T16:29:17.167Z,5.60
2023-12-07T16:31:44.281Z,5.60
2023-12-07T16:34:11.514Z,5.60
2023-12-07T16:36:38.162Z,5.50
2023-12-07T16:39:06.258Z,5.50
2023-12-07T16:41:39.143Z,5.50
2023-12-07T16:44:12.897Z,5.50
2023-12-07T16:46:46.124Z,5.50
2023-12-07T16:49:16.252Z,5.50
2023-12-07T16:51:43.034Z,5.50
2023-12-07T16:54:09.783Z,5.50
2023-12-07T16:56:36.798Z,5.50
2023-12-07T16:59:03.629Z,5.60
2023-12-07T17:01:30.331Z,5.60
2023-12-07T17:03:57.213Z,5.60
2023-12-07T17:06:24.022Z,5.60
2023-12-07T17:09:03.322Z,5.60
2023-12-07T17:11:38.193Z,5.60
2023-12-07T17:14:04.859Z,5.60
2023-12-07T17:16:31.640Z,5.70
2023-12-07T17:18:58.504Z,5.70
2023-12-07T17:21:27.513Z,5.70
2023-12-07T17:23:54.242Z,5.70
2023-12-07T17:26:21.075Z,5.80
2023-12-07T17:28:48.448Z,5.80
2023-12-07T17:31:15.592Z,5.80
2023-12-07T17:33:42.458Z,5.80
2023-12-07T17:36:09.506Z,5.80
2023-12-07T17:38:36.182Z,5.80
2023-12-07T17:41:03.241Z,5.90
2023-12-07T17:43:30.056Z,5.90
2023-12-07T17:45:58.601Z,5.90
2023-12-07T17:48:25.724Z,5.90
2023-12-07T17:50:52.705Z,5.90
2023-12-07T17:53:20.001Z,5.90
2023-12-07T17:55:46.584Z,5.90
2023-12-07T17:58:13.254Z,5.90
2023-12-07T18:00:39.954Z,6.00
2023-12-07T18:03:06.935Z,5.90
2023-12-07T18:05:36.190Z,6.00
2023-12-07T18:08:05.486Z,5.90
2023-12-07T18:10:32.591Z,5.90
2023-12-07T18:12:59.283Z,5.90
2023-12-07T18:15:25.962Z,5.90
2023-12-07T18:17:52.786Z,5.80
2023-12-07T18:20:19.612Z,5.80
2023-12-07T18:22:46.197Z,5.80
2023-12-07T18:25:12.889Z,5.80
2023-12-07T18:27:39.735Z,5.80
2023-12-07T18:30:09.500Z,5.80
2023-12-07T18:32:39.820Z,5.70
2023-12-07T18:35:06.861Z,5.70
2023-12-07T18:37:36.229Z,5.70
2023-12-07T18:40:06.972Z,5.70
2023-12-07T18:42:33.605Z,5.70
2023-12-07T18:45:02.658Z,5.70
2023-12-07T18:47:29.895Z,5.70
2023-12-07T18:49:58.867Z,5.70
2023-12-07T18:52:29.875Z,5.70
2023-12-07T18:55:04.145Z,5.80
2023-12-07T18:57:32.973Z,5.70
2023-12-07T19:00:01.089Z,5.70
2023-12-07T19:02:33.254Z,5.70
2023-12-07T19:05:00.020Z,5.80
2023-12-07T19:07:28.930Z,5.80
2023-12-07T19:09:59.868Z,5.80
2023-12-07T19:12:26.494Z,5.80
2023-12-07T19:14:53.263Z,5.70
2023-12-07T19:17:22.658Z,5.70
2023-12-07T19:19:49.508Z,5.80
2023-12-07T19:22:16.279Z,5.70
2023-12-07T19:24:42.908Z,5.70
2023-12-07T19:27:11.773Z,5.80
2023-12-07T19:29:40.663Z,5.70
2023-12-07T19:32:08.973Z,5.70
2023-12-07T19:34:35.685Z,5.70
2023-12-07T19:37:07.543Z,5.70
2023-12-07T19:39:34.374Z,5.70
2023-12-07T19:42:01.161Z,5.70
2023-12-07T19:44:30.240Z,5.70
2023-12-07T19:46:56.977Z,5.70
2023-12-07T19:49:23.963Z,5.70
2023-12-07T19:51:50.831Z,5.60
2023-12-07T19:54:18.894Z,5.60
2023-12-07T19:56:48.065Z,5.60
2023-12-07T19:59:14.722Z,5.60
2023-12-07T20:01:43.864Z,5.60
2023-12-07T20:04:15.286Z,5.60
2023-12-07T20:06:44.360Z,5.60
2023-12-07T20:09:15.368Z,5.60
2023-12-07T20:11:47.128Z,5.60
2023-12-07T20:14:18.696Z,5.60
2023-12-07T20:16:50.622Z,5.60
2023-12-07T20:19:19.941Z,5.60
2023-12-07T20:21:46.731Z,5.60
2023-12-07T20:24:14.796Z,5.60
2023-12-07T20:26:42.036Z,5.60
2023-12-07T20:29:08.952Z,5.60
2023-12-07T20:31:35.663Z,5.60
2023-12-07T20:34:04.651Z,5.60
2023-12-07T20:36:38.742Z,5.60
2023-12-07T20:39:09.538Z,5.60
2023-12-07T20:41:36.311Z,5.60
2023-12-07T20:44:10.802Z,5.60
2023-12-07T20:46:40.869Z,5.60
2023-12-07T20:49:10.239Z,5.60
2023-12-07T20:51:42.470Z,5.60
2023-12-07T20:54:09.117Z,5.60
2023-12-07T20:56:44.495Z,5.70
2023-12-07T20:59:14.721Z,5.70
2023-12-07T21:01:43.411Z,5.70
2023-12-07T21:04:10.222Z,5.70
2023-12-07T21:06:37.075Z,5.70
2023-12-07T21:09:08.212Z,5.70
2023-12-07T21:11:34.966Z,5.70
2023-12-07T21:14:05.144Z,5.70
2023-12-07T21:16:34.176Z,5.70
2023-12-07T21:19:03.220Z,5.70
2023-12-07T21:21:32.406Z,5.70
2023-12-07T21:24:01.690Z,5.80
2023-12-07T21:26:28.565Z,5.80
2023-12-07T21:28:55.257Z,5.80
2023-12-07T21:31:22.938Z,5.80
2023-12-07T21:33:51.222Z,5.80
2023-12-07T21:36:18.310Z,5.90
2023-12-07T21:38:47.319Z,5.90
2023-12-07T21:41:16.503Z,5.90
2023-12-07T21:43:46.515Z,5.90
2023-12-07T21:46:13.147Z,5.90
2023-12-07T21:48:39.935Z,5.90
2023-12-07T21:51:11.878Z,6.00
2023-12-07T21:53:44.396Z,6.00
2023-12-07T21:56:15.408Z,6.00
2023-12-07T21:58:42.841Z,6.00
2023-12-07T22:01:18.785Z,6.00
2023-12-07T22:03:45.593Z,6.10
2023-12-07T22:06:12.436Z,6.10
2023-12-07T22:08:41.686Z,6.10
2023-12-07T22:11:12.327Z,6.10
2023-12-07T22:13:43.059Z,6.10
2023-12-07T22:16:10.205Z,6.10
2023-12-07T22:18:42.677Z,6.10
2023-12-07T22:21:12.258Z,6.10
2023-12-07T22:23:40.428Z,6.20
2023-12-07T22:26:07.265Z,6.20
2023-12-07T22:28:33.971Z,6.20
2023-12-07T22:31:04.410Z,6.20
2023-12-07T22:33:33.927Z,6.20
2023-12-07T22:36:00.853Z,6.20
2023-12-07T22:38:27.662Z,6.20
2023-12-07T22:40:57.316Z,6.20
2023-12-07T22:43:23.960Z,6.20
2023-12-07T22:45:55.810Z,6.30
2023-12-07T22:48:24.748Z,6.30
2023-12-07T22:50:53.694Z,6.30
2023-12-07T22:53:20.311Z,6.30
2023-12-07T22:55:49.517Z,6.30
2023-12-07T22:58:21.116Z,6.30
2023-12-07T23:00:48.265Z,6.30
2023-12-07T23:03:14.913Z,6.30
2023-12-07T23:05:41.634Z,6.40
2023-12-07T23:08:11.052Z,6.40
2023-12-07T23:10:40.209Z,6.40
2023-12-07T23:13:10.568Z,6.40
2023-12-07T23:15:44.803Z,6.40
2023-12-07T23:18:11.657Z,6.40
2023-12-07T23:20:43.654Z,6.40
2023-12-07T23:23:10.283Z,6.40
2023-12-07T23:25:39.106Z,6.40
2023-12-07T23:28:10.664Z,6.50
2023-12-07T23:30:37.659Z,6.50
2023-12-07T23:33:07.509Z,6.50
2023-12-07T23:35:34.258Z,6.50
2023-12-07T23:38:02.271Z,6.50
2023-12-07T23:40:33.164Z,6.50
2023-12-07T23:42:59.816Z,6.50
2023-12-07T23:45:26.734Z,6.50
2023-12-07T23:48:00.906Z,6.50
2023-12-07T23:50:27.839Z,6.50
2023-12-07T23:52:54.466Z,6.50
2023-12-07T23:55:24.433Z,6.50
2023-12-07T23:57:51.843Z,6.50
